Terminal Aerodrome Forecast
Issued by NWS Mt. Holly, NJ

Home | Current Version | Previous Version | Text Only | Print | Product List | Glossary On
Versions: 1 2 3 4 5 6 7 8 9 10 11 12 13 14 15 16 17 18 19 20 21 22 23 24 25 26 27
167
FTUS41 KPHI 281120
TAFACY
TAF
KACY 281120Z 2812/2912 02003KT P6SM FEW090 OVC120
      TEMPO 2812/2815 3SM BR BKN003
     FM281800 16005KT 6SM BR BKN050
      TEMPO 2820/2823 2SM SHRA BR BKN015
     FM290000 04005KT 2SM BR VCSH OVC005
     FM291000 34011KT P6SM SKC=

USA.gov is the U.S. government's official web portal to all federal, state and local government web resources and services.